LTAJ

Details ICAO LTAJ (GZT)
Name OGUZELI
Region Turkey
Timezone Europe/Istanbul (UTC+3.0)
Plans Departing 29
Arriving 47
Stats Elevation 2,315 ft / 706 m (AMSL)
Location 36.947350° 37.478064°
Runways 2
Magnetic Variation 5.417° E
Sunrise 2017-12-11 04:34:28 UTC / 2017-12-11 07:34:28 Local
Sunset 2017-12-11 14:15:02 UTC / 2017-12-11 17:15:02 Local
Advertisement - Login to hide

Runways

ID Width Length Bearing (true) Bearing (mag) Surface Threshold Offset Overrun Length
10L 148 ft / 45 m 9,822 ft / 2,994 m 105.04° 99.62° Concrete 427 ft / 130 m 197 ft / 60 m
10R 100 ft / 30 m 9,821 ft / 2,994 m 105.04° 99.62° Concrete 328 ft / 100 m 197 ft / 60 m
28L 100 ft / 30 m 9,821 ft / 2,994 m 285.06° 279.64° Concrete 0 ft / 0 m 197 ft / 60 m
28R 148 ft / 45 m 9,822 ft / 2,994 m 285.06° 279.64° Concrete 0 ft / 0 m 623 ft / 190 m

Map

Weather


0- 5 10 15 20 25 30 35+ Temperature / ° C

Clouds and Precipitation
Forecast for 2017-12-11 12:00 UTC. Updated an hour ago

Ground ~20,000 ft ~40,000 ft Winds

METAR

LTAJ 110750Z 00000KT CAVOK 11/01 Q1028 NOSIG

TAF

Not found

Frequencies

Tower 121.90 MHz TWR
Tower 120.10 MHz TWR
Approach 121.90 MHz APP
Tower 122.10 MHz TWR
Approach 122.10 MHz APP
Approach 120.10 MHz APP
Warning: Do not use this data for real-world aviation or navigation. No guarantee of current accuracy is given.